Time;durP1;ratioP1;P1;durP2;ratioP2;P2;SDS_P1;SDS_P2;PMS_P1;PMS_P2;Temp;Humidity;BMP_temperature;BMP_pressure;BME280_temperature;BME280_humidity;BME280_pressure;Samples;Min_cycle;Max_cycle;Signal;HPM_P1;HPM_P2
2024/02/13 00:01:06;;;;;;;4.00;3.17;;;6.80;63.10;;;;;;4916071;29;20282;-65
2024/02/13 00:03:33;;;;;;;3.77;3.47;;;6.90;62.90;;;;;;4915408;29;20236;-65
2024/02/13 00:06:00;;;;;;;3.13;2.93;;;6.80;63.40;;;;;;4915468;29;20214;-65
2024/02/13 00:08:27;;;;;;;3.40;3.10;;;6.80;63.40;;;;;;4915946;29;20773;-65
2024/02/13 00:10:54;;;;;;;3.53;3.23;;;6.80;63.50;;;;;;4916333;29;20245;-65
2024/02/13 00:13:20;;;;;;;3.50;3.20;;;6.80;62.90;;;;;;4920313;29;20265;-65
2024/02/13 00:15:47;;;;;;;4.07;3.00;;;6.80;62.90;;;;;;4912245;29;20758;-65
2024/02/13 00:18:13;;;;;;;4.33;3.53;;;6.80;62.60;;;;;;4915721;29;20218;-65
2024/02/13 00:20:40;;;;;;;4.27;3.30;;;6.80;62.50;;;;;;4907575;29;20214;-65
2024/02/13 00:23:07;;;;;;;3.00;2.80;;;6.70;62.60;;;;;;4914184;29;20233;-65
2024/02/13 00:25:33;;;;;;;3.73;2.80;;;6.80;62.50;;;;;;4914600;29;20239;-65
2024/02/13 00:28:00;;;;;;;3.37;3.13;;;6.80;62.00;;;;;;4917806;29;20277;-66
2024/02/13 00:30:27;;;;;;;3.23;2.93;;;6.80;62.10;;;;;;4915880;29;20261;-65
2024/02/13 00:32:54;;;;;;;3.67;3.10;;;6.70;62.40;;;;;;4912901;29;20233;-65
2024/02/13 00:35:20;;;;;;;3.13;2.93;;;6.80;61.90;;;;;;4915331;29;20720;-65
2024/02/13 00:37:47;;;;;;;4.50;3.50;;;6.80;61.80;;;;;;4915616;29;20225;-65
2024/02/13 00:40:15;;;;;;;3.10;2.80;;;6.80;61.50;;;;;;4916498;29;20700;-65
2024/02/13 00:42:41;;;;;;;3.53;3.10;;;6.80;60.90;;;;;;4912797;29;20708;-65
2024/02/13 00:45:10;;;;;;;5.60;3.10;;;6.80;60.60;;;;;;4916415;29;20234;-65
2024/02/13 00:47:38;;;;;;;3.73;3.27;;;6.80;61.00;;;;;;4915877;29;20221;-65
2024/02/13 00:50:05;;;;;;;3.47;2.93;;;6.80;60.60;;;;;;4913275;29;20785;-65
2024/02/13 00:52:33;;;;;;;3.40;3.10;;;6.80;60.20;;;;;;4914524;29;20230;-65
2024/02/13 00:55:00;;;;;;;3.33;2.93;;;6.90;60.50;;;;;;4921692;29;20215;-65
2024/02/13 00:57:28;;;;;;;3.37;2.70;;;6.90;60.00;;;;;;4915397;29;20225;-65
2024/02/13 00:59:55;;;;;;;5.53;3.17;;;7.00;59.70;;;;;;4915534;29;20228;-65
2024/02/13 01:02:22;;;;;;;2.90;2.70;;;6.90;59.50;;;;;;4914993;29;20242;-65
2024/02/13 01:04:49;;;;;;;3.13;2.90;;;7.00;59.40;;;;;;4915072;29;20233;-65
2024/02/13 01:07:17;;;;;;;3.37;2.80;;;6.80;59.10;;;;;;4915432;29;20262;-65
2024/02/13 01:09:43;;;;;;;3.83;2.63;;;6.80;59.40;;;;;;4907444;29;20221;-65
2024/02/13 01:12:10;;;;;;;3.20;2.90;;;6.80;58.80;;;;;;4914708;29;20262;-65
2024/02/13 01:14:37;;;;;;;3.93;2.90;;;6.80;59.20;;;;;;4914572;29;20282;-65
2024/02/13 01:17:04;;;;;;;3.13;2.57;;;6.80;59.00;;;;;;4908665;29;20715;-65
2024/02/13 01:19:31;;;;;;;2.93;2.30;;;6.80;59.40;;;;;;4914153;29;20216;-65
2024/02/13 01:21:57;;;;;;;2.83;2.53;;;6.70;59.30;;;;;;4911223;29;20237;-65
2024/02/13 01:24:26;;;;;;;2.93;2.73;;;6.60;59.30;;;;;;4912224;29;20252;-65
2024/02/13 01:26:53;;;;;;;2.77;2.57;;;6.70;59.40;;;;;;4915069;29;20268;-65
2024/02/13 01:29:20;;;;;;;2.70;2.50;;;6.70;59.00;;;;;;4915001;29;20221;-65
2024/02/13 01:31:47;;;;;;;3.10;2.47;;;6.70;58.90;;;;;;4914512;29;20230;-65
2024/02/13 01:34:14;;;;;;;3.90;2.90;;;6.80;58.50;;;;;;4915394;29;20241;-65
2024/02/13 01:36:40;;;;;;;3.73;2.50;;;6.70;58.90;;;;;;4914615;29;20218;-65
2024/02/13 01:39:09;;;;;;;4.87;2.63;;;6.80;59.00;;;;;;4914886;29;20701;-65
2024/02/13 01:41:35;;;;;;;3.80;2.60;;;6.70;58.60;;;;;;4908735;29;20321;-65
2024/02/13 01:44:03;;;;;;;2.83;2.37;;;6.70;59.10;;;;;;4914389;29;20363;-65
2024/02/13 01:46:30;;;;;;;3.23;2.63;;;6.70;59.00;;;;;;4915012;29;20214;-65
2024/02/13 01:48:58;;;;;;;4.43;2.70;;;6.70;58.90;;;;;;4915039;29;20214;-65
2024/02/13 01:51:27;;;;;;;2.70;2.50;;;6.70;59.00;;;;;;4914658;29;20615;-65
2024/02/13 01:53:53;;;;;;;3.50;2.73;;;6.80;58.80;;;;;;4914724;29;20268;-65
2024/02/13 01:56:24;;;;;;;3.73;2.77;;;6.70;58.40;;;;;;4914569;29;20297;-65
2024/02/13 01:58:52;;;;;;;2.40;2.20;;;6.80;58.50;;;;;;4908335;29;20654;-64
2024/02/13 02:01:18;;;;;;;2.73;2.53;;;6.70;58.30;;;;;;4911825;29;20238;-64
2024/02/13 02:03:45;;;;;;;2.47;2.27;;;6.70;58.40;;;;;;4917391;29;20261;-64
2024/02/13 02:06:11;;;;;;;2.30;2.10;;;6.80;58.00;;;;;;4917773;29;20222;-64
2024/02/13 02:08:39;;;;;;;5.37;2.87;;;6.70;57.80;;;;;;4917999;29;20269;-64
2024/02/13 02:11:05;;;;;;;2.50;2.30;;;6.80;57.70;;;;;;4917579;29;20234;-65
2024/02/13 02:13:32;;;;;;;3.30;2.50;;;6.70;57.80;;;;;;4918104;29;20302;-64
2024/02/13 02:15:59;;;;;;;3.43;2.50;;;6.80;58.10;;;;;;4911401;29;20206;-64
2024/02/13 02:18:25;;;;;;;2.67;2.30;;;6.80;57.80;;;;;;4917219;29;20277;-64
2024/02/13 02:20:52;;;;;;;2.50;2.30;;;6.70;57.70;;;;;;4917650;29;20643;-64
2024/02/13 02:23:19;;;;;;;3.00;2.40;;;6.70;57.70;;;;;;4917639;29;20221;-64
2024/02/13 02:25:46;;;;;;;4.53;2.23;;;6.80;57.70;;;;;;4917203;29;20825;-64
2024/02/13 02:28:15;;;;;;;2.97;2.30;;;6.90;57.00;;;;;;4917345;29;20217;-64
2024/02/13 02:30:42;;;;;;;2.83;2.30;;;6.90;56.70;;;;;;4917764;29;20213;-64
2024/02/13 02:33:08;;;;;;;2.60;2.40;;;6.90;57.50;;;;;;4911936;29;20232;-64
2024/02/13 02:35:35;;;;;;;3.13;2.93;;;6.80;56.80;;;;;;4910088;29;20217;-64
2024/02/13 02:38:02;;;;;;;4.50;2.53;;;6.90;56.80;;;;;;4914594;29;20884;-64
2024/02/13 02:40:29;;;;;;;4.37;2.70;;;6.80;56.60;;;;;;4915980;29;20273;-65
2024/02/13 02:42:56;;;;;;;2.70;2.50;;;6.80;56.80;;;;;;4914276;29;20242;-64
2024/02/13 02:45:23;;;;;;;4.43;2.33;;;6.70;56.60;;;;;;4916487;29;20237;-64
2024/02/13 02:47:50;;;;;;;2.97;2.77;;;6.90;56.30;;;;;;4917488;29;20225;-64
2024/02/13 02:50:17;;;;;;;4.50;2.30;;;6.80;56.20;;;;;;4918104;29;20304;-64
2024/02/13 02:52:44;;;;;;;2.50;2.30;;;6.70;56.90;;;;;;4910393;29;20322;-64
2024/02/13 02:55:11;;;;;;;3.33;2.90;;;6.80;56.30;;;;;;4916916;29;20312;-64
2024/02/13 02:57:37;;;;;;;3.53;2.60;;;6.80;56.70;;;;;;4917098;29;20217;-64
2024/02/13 03:00:06;;;;;;;6.67;2.57;;;6.60;56.50;;;;;;4917138;29;20636;-64
2024/02/13 03:02:32;;;;;;;4.47;2.37;;;6.80;56.50;;;;;;4916628;29;20272;-65
2024/02/13 03:04:59;;;;;;;3.97;2.60;;;6.90;56.30;;;;;;4913496;29;20225;-65
2024/02/13 03:07:25;;;;;;;4.10;2.37;;;6.80;56.20;;;;;;4917557;29;20214;-65
2024/02/13 03:09:52;;;;;;;2.57;2.30;;;6.70;56.80;;;;;;4908813;29;20210;-65
2024/02/13 03:12:18;;;;;;;2.40;2.30;;;6.70;56.70;;;;;;4916050;29;20281;-65
2024/02/13 03:14:45;;;;;;;2.67;2.47;;;6.80;56.20;;;;;;4912997;29;20678;-65
2024/02/13 03:17:12;;;;;;;2.90;2.10;;;6.70;56.50;;;;;;4911168;29;20708;-65
2024/02/13 03:19:38;;;;;;;3.77;2.13;;;6.70;56.30;;;;;;4915367;29;20241;-65
2024/02/13 03:22:05;;;;;;;3.17;2.67;;;6.80;56.20;;;;;;4916202;29;20333;-63
2024/02/13 03:24:31;;;;;;;2.87;2.33;;;6.80;56.10;;;;;;4916036;29;20265;-65
2024/02/13 03:26:58;;;;;;;3.90;2.37;;;6.70;56.10;;;;;;4913657;29;20733;-65
2024/02/13 03:29:24;;;;;;;2.87;2.37;;;6.70;56.10;;;;;;4915197;29;20222;-64
2024/02/13 03:31:51;;;;;;;3.57;2.30;;;6.80;56.20;;;;;;4916077;29;20262;-65
2024/02/13 03:34:17;;;;;;;4.67;2.80;;;6.70;56.10;;;;;;4907129;29;20233;-65
2024/02/13 03:36:44;;;;;;;1.93;1.83;;;6.70;56.10;;;;;;4915112;29;20636;-65
2024/02/13 03:39:12;;;;;;;2.57;2.37;;;6.80;56.20;;;;;;4916251;29;20225;-65
2024/02/13 03:41:39;;;;;;;3.27;2.30;;;6.70;56.10;;;;;;4916460;29;20281;-65
2024/02/13 03:44:10;;;;;;;3.13;2.33;;;6.80;55.80;;;;;;4914960;29;20303;-65
2024/02/13 03:46:37;;;;;;;4.97;2.40;;;6.80;55.80;;;;;;4915911;29;20246;-65
2024/02/13 03:49:04;;;;;;;5.93;2.40;;;6.80;56.20;;;;;;4915830;29;20631;-63
2024/02/13 03:51:30;;;;;;;4.60;2.50;;;6.80;56.20;;;;;;4908778;29;20248;-65
2024/02/13 03:53:57;;;;;;;2.93;2.30;;;6.80;56.20;;;;;;4913449;29;20245;-65
2024/02/13 03:56:23;;;;;;;2.90;2.37;;;6.80;56.20;;;;;;4915776;29;20241;-65
2024/02/13 03:58:50;;;;;;;3.33;2.20;;;6.70;56.10;;;;;;4916450;29;20217;-65
2024/02/13 04:01:16;;;;;;;4.37;2.50;;;6.70;56.10;;;;;;4915759;29;20456;-65
2024/02/13 04:03:43;;;;;;;5.63;2.43;;;6.70;56.10;;;;;;4915910;29;20367;-65
2024/02/13 04:06:11;;;;;;;4.80;2.67;;;6.70;55.90;;;;;;4916055;29;20229;-65
2024/02/13 04:08:39;;;;;;;3.50;2.30;;;6.70;55.90;;;;;;4910149;29;20271;-65
2024/02/13 04:11:05;;;;;;;4.00;2.40;;;6.70;55.40;;;;;;4915004;29;20248;-65
2024/02/13 04:13:32;;;;;;;5.13;2.27;;;6.70;56.10;;;;;;4915785;29;20348;-65
2024/02/13 04:15:59;;;;;;;3.80;2.30;;;6.60;56.00;;;;;;4916452;29;20218;-65
2024/02/13 04:18:26;;;;;;;2.73;2.00;;;6.70;55.70;;;;;;4909985;29;20209;-65
2024/02/13 04:20:52;;;;;;;2.50;2.30;;;6.80;55.50;;;;;;4914249;29;20210;-65
2024/02/13 04:23:19;;;;;;;2.60;2.40;;;6.90;55.50;;;;;;4915430;29;20221;-65
2024/02/13 04:25:46;;;;;;;2.53;2.20;;;6.70;55.70;;;;;;4915224;29;20253;-65
2024/02/13 04:28:13;;;;;;;4.50;2.40;;;6.70;55.70;;;;;;4915552;29;20212;-65
2024/02/13 04:30:40;;;;;;;2.47;2.17;;;6.60;55.70;;;;;;4915294;29;20677;-65
2024/02/13 04:33:08;;;;;;;2.60;2.40;;;6.70;56.10;;;;;;4915381;29;20707;-65
2024/02/13 04:35:34;;;;;;;3.87;2.47;;;6.60;56.00;;;;;;4908011;29;20222;-65
2024/02/13 04:38:03;;;;;;;3.33;2.33;;;6.60;56.10;;;;;;4909681;29;20293;-65
2024/02/13 04:40:30;;;;;;;2.80;2.30;;;6.50;56.60;;;;;;4915495;29;20215;-65
2024/02/13 04:42:56;;;;;;;2.30;2.07;;;6.50;56.00;;;;;;4915015;29;20289;-65
2024/02/13 04:45:23;;;;;;;4.07;2.20;;;6.50;56.00;;;;;;4914947;29;20233;-65
2024/02/13 04:47:50;;;;;;;3.50;2.40;;;6.60;56.00;;;;;;4915289;29;20206;-65
2024/02/13 04:50:16;;;;;;;4.17;2.60;;;6.70;56.10;;;;;;4915728;29;20262;-65
2024/02/13 04:52:43;;;;;;;2.50;2.30;;;6.60;56.70;;;;;;4912299;29;20541;-65
2024/02/13 04:55:10;;;;;;;3.43;2.60;;;6.60;56.00;;;;;;4911797;29;20274;-65
2024/02/13 04:57:38;;;;;;;6.63;2.43;;;6.60;56.00;;;;;;4915174;29;20245;-65
2024/02/13 05:00:14;;;;;;;3.10;2.20;;;6.60;56.00;;;;;;4915623;29;20232;-66
2024/02/13 05:02:46;;;;;;;5.50;2.57;;;6.50;56.00;;;;;;4915267;29;20324;-65
2024/02/13 05:07:56;;;;;;;3.40;2.23;;;6.50;56.20;;;;;;4915120;29;20192;-65
2024/02/13 05:10:23;;;;;;;3.50;2.33;;;6.50;55.90;;;;;;4914924;29;20221;-65
2024/02/13 05:12:49;;;;;;;3.60;2.50;;;6.50;56.10;;;;;;4908428;29;20233;-65
2024/02/13 05:15:17;;;;;;;3.57;2.20;;;6.50;56.00;;;;;;4914935;29;20234;-65
2024/02/13 05:17:44;;;;;;;4.07;3.03;;;6.50;56.00;;;;;;4915091;29;20217;-65
2024/02/13 05:20:11;;;;;;;4.73;2.33;;;6.50;55.70;;;;;;4908946;29;20678;-65
2024/02/13 05:22:38;;;;;;;4.30;2.40;;;6.20;56.10;;;;;;4915084;29;20719;-65
2024/02/13 05:25:04;;;;;;;2.50;2.07;;;6.20;56.60;;;;;;4914929;29;20234;-65
2024/02/13 05:27:31;;;;;;;6.63;3.30;;;6.30;56.30;;;;;;4915218;29;20273;-65
2024/02/13 05:30:00;;;;;;;5.30;2.50;;;6.30;56.30;;;;;;4914862;29;20279;-65
2024/02/13 05:32:26;;;;;;;3.30;2.47;;;6.20;56.20;;;;;;4914874;29;20238;-65
2024/02/13 05:34:53;;;;;;;4.07;2.43;;;6.20;56.50;;;;;;4914391;29;20214;-65
2024/02/13 05:37:20;;;;;;;5.33;2.50;;;6.10;56.60;;;;;;4910174;29;20218;-65
2024/02/13 05:39:50;;;;;;;3.80;2.40;;;6.10;56.60;;;;;;4918205;29;20846;-65
2024/02/13 05:42:18;;;;;;;2.77;2.37;;;6.00;57.20;;;;;;4918403;29;20237;-65
2024/02/13 05:44:45;;;;;;;3.27;3.00;;;6.00;57.50;;;;;;4918450;29;20280;-65
2024/02/13 05:47:11;;;;;;;3.20;2.70;;;5.90;57.60;;;;;;4918703;29;20249;-65
2024/02/13 05:49:38;;;;;;;4.17;2.30;;;6.00;57.40;;;;;;4918678;29;20218;-65
2024/02/13 05:52:04;;;;;;;5.43;2.47;;;6.10;56.80;;;;;;4918886;29;20320;-65
2024/02/13 05:54:33;;;;;;;3.00;2.30;;;6.00;57.10;;;;;;4914254;29;20213;-65
2024/02/13 05:57:00;;;;;;;4.30;2.90;;;6.00;57.20;;;;;;4918409;29;20220;-65
2024/02/13 05:59:29;;;;;;;2.60;2.30;;;6.00;57.30;;;;;;4910500;29;20217;-65
2024/02/13 06:01:56;;;;;;;4.93;2.60;;;6.00;57.10;;;;;;4918662;29;20229;-65
2024/02/13 06:04:22;;;;;;;4.03;2.67;;;6.00;57.40;;;;;;4918345;29;20824;-65
2024/02/13 06:06:49;;;;;;;4.50;2.63;;;5.90;57.70;;;;;;4918549;29;20272;-65
2024/02/13 06:09:20;;;;;;;4.60;2.27;;;5.90;58.20;;;;;;4918463;29;20213;-65
2024/02/13 06:11:47;;;;;;;4.03;2.60;;;6.10;56.90;;;;;;4907091;29;20244;-65
2024/02/13 06:14:13;;;;;;;3.50;2.30;;;6.10;57.30;;;;;;4918094;29;20210;-65
2024/02/13 06:16:40;;;;;;;4.90;3.27;;;6.10;57.10;;;;;;4908706;29;20270;-65
2024/02/13 06:19:06;;;;;;;3.00;2.33;;;6.10;56.70;;;;;;4910800;29;20648;-65
2024/02/13 06:21:33;;;;;;;2.67;2.47;;;6.10;56.90;;;;;;4911011;29;20225;-65
2024/02/13 06:24:00;;;;;;;4.07;2.30;;;6.10;56.90;;;;;;4917772;29;20212;-65
2024/02/13 06:26:26;;;;;;;5.17;2.40;;;6.10;56.80;;;;;;4917986;29;20288;-65
2024/02/13 06:28:53;;;;;;;4.73;3.40;;;6.10;56.40;;;;;;4917995;29;20216;-65
2024/02/13 06:31:20;;;;;;;4.83;3.00;;;6.00;56.70;;;;;;4917832;29;20247;-65
2024/02/13 06:33:46;;;;;;;5.00;2.30;;;6.00;56.70;;;;;;4917569;29;20558;-65
2024/02/13 06:36:13;;;;;;;3.50;2.87;;;6.00;56.70;;;;;;4917019;29;20209;-65
2024/02/13 06:38:39;;;;;;;3.93;2.90;;;6.00;56.00;;;;;;4911621;29;20300;-65
2024/02/13 06:41:06;;;;;;;3.07;2.70;;;6.00;56.10;;;;;;4917146;29;20237;-65
2024/02/13 06:43:32;;;;;;;3.77;2.50;;;6.10;56.20;;;;;;4917226;29;20211;-65
2024/02/13 06:45:59;;;;;;;3.97;2.60;;;6.00;56.00;;;;;;4916978;29;20236;-65
2024/02/13 06:48:25;;;;;;;3.53;2.50;;;6.10;55.90;;;;;;4917948;29;20622;-65
2024/02/13 06:50:52;;;;;;;2.97;2.67;;;6.00;55.50;;;;;;4916872;29;20235;-65
2024/02/13 06:53:18;;;;;;;6.37;2.90;;;6.10;55.60;;;;;;4916871;29;20273;-65
2024/02/13 06:55:45;;;;;;;6.97;2.80;;;6.20;55.70;;;;;;4915072;29;20628;-65
2024/02/13 06:58:13;;;;;;;3.50;2.70;;;6.20;55.70;;;;;;4911687;29;20291;-65
2024/02/13 07:00:40;;;;;;;3.37;2.57;;;6.30;55.60;;;;;;4912165;29;20221;-65
2024/02/13 07:03:07;;;;;;;3.47;2.70;;;6.20;55.40;;;;;;4909290;29;20266;-65
2024/02/13 07:05:34;;;;;;;4.60;2.67;;;6.10;55.60;;;;;;4909202;29;20228;-65
2024/02/13 07:08:00;;;;;;;5.73;2.73;;;6.10;55.60;;;;;;4912672;29;20205;-65
2024/02/13 07:10:27;;;;;;;3.40;2.80;;;6.20;55.70;;;;;;4902922;29;20216;-65
2024/02/13 07:12:55;;;;;;;4.03;2.57;;;6.20;55.70;;;;;;4907975;29;20288;-65
2024/02/13 07:15:22;;;;;;;5.53;2.93;;;6.20;55.70;;;;;;4908344;29;20250;-65
2024/02/13 07:17:48;;;;;;;4.27;2.90;;;6.30;55.70;;;;;;4914660;29;20321;-65
2024/02/13 07:20:15;;;;;;;3.77;2.60;;;6.30;55.60;;;;;;4909288;29;20214;-65
2024/02/13 07:22:42;;;;;;;5.57;3.00;;;6.20;55.70;;;;;;4916447;29;20579;-65
2024/02/13 07:25:09;;;;;;;6.87;2.77;;;6.20;55.70;;;;;;4914741;29;20217;-65
2024/02/13 07:27:36;;;;;;;4.20;2.60;;;6.20;55.70;;;;;;4910247;29;20269;-65
2024/02/13 07:30:03;;;;;;;6.97;3.23;;;6.30;55.80;;;;;;4911999;29;20227;-64
2024/02/13 07:32:29;;;;;;;4.50;2.80;;;6.20;55.70;;;;;;4913625;29;20229;-65
2024/02/13 07:34:57;;;;;;;4.57;3.23;;;6.30;55.80;;;;;;4915306;29;20208;-65
2024/02/13 07:37:24;;;;;;;5.87;2.63;;;6.20;55.70;;;;;;4914858;29;20243;-65
2024/02/13 07:39:50;;;;;;;6.27;2.90;;;6.20;55.30;;;;;;4915897;29;20554;-65
2024/02/13 07:42:17;;;;;;;4.73;3.13;;;6.20;55.20;;;;;;4914382;29;20257;-65
2024/02/13 07:44:43;;;;;;;5.60;2.73;;;6.30;55.40;;;;;;4914071;29;20265;-65
2024/02/13 07:47:12;;;;;;;3.17;2.77;;;6.20;55.70;;;;;;4916312;29;20237;-65
2024/02/13 07:49:38;;;;;;;4.03;3.03;;;6.30;55.40;;;;;;4899614;29;20785;-65
2024/02/13 07:52:05;;;;;;;4.93;2.80;;;6.30;54.90;;;;;;4906331;29;20324;-65
2024/02/13 07:54:32;;;;;;;5.00;2.90;;;6.30;55.70;;;;;;4908412;29;20589;-65
2024/02/13 07:56:59;;;;;;;7.37;3.10;;;6.30;55.30;;;;;;4916872;29;20205;-65
2024/02/13 07:59:26;;;;;;;5.97;2.80;;;6.30;55.00;;;;;;4913313;29;20217;-65
2024/02/13 08:01:52;;;;;;;5.47;2.80;;;6.40;55.20;;;;;;4915772;29;20234;-65
2024/02/13 08:04:19;;;;;;;3.23;2.47;;;6.40;54.50;;;;;;4912685;29;20262;-66
2024/02/13 08:06:46;;;;;;;2.93;2.50;;;6.40;54.40;;;;;;4906583;29;20227;-65
2024/02/13 08:09:14;;;;;;;4.50;2.70;;;6.40;54.80;;;;;;4902651;29;20225;-64
2024/02/13 08:11:41;;;;;;;5.70;2.63;;;6.40;54.80;;;;;;4910137;29;20273;-65
2024/02/13 08:14:09;;;;;;;3.93;2.37;;;6.50;54.50;;;;;;4915350;29;20213;-65
2024/02/13 08:16:35;;;;;;;4.07;2.90;;;6.50;54.30;;;;;;4910853;29;20639;-65
2024/02/13 08:19:02;;;;;;;2.97;2.40;;;6.70;54.10;;;;;;4915579;29;20214;-65
2024/02/13 08:21:29;;;;;;;4.00;2.93;;;6.70;53.70;;;;;;4910984;29;20308;-65
2024/02/13 08:23:55;;;;;;;5.43;3.70;;;6.60;54.20;;;;;;4907627;29;20240;-65
2024/02/13 08:26:22;;;;;;;5.67;2.73;;;6.60;54.00;;;;;;4905822;29;20277;-65
2024/02/13 08:28:49;;;;;;;2.63;2.43;;;6.60;53.00;;;;;;4909757;29;20752;-65
2024/02/13 08:31:16;;;;;;;4.73;2.70;;;6.70;53.30;;;;;;4909787;29;20973;-65
2024/02/13 08:33:44;;;;;;;3.63;2.40;;;6.70;53.20;;;;;;4913296;29;20277;-65
2024/02/13 08:36:11;;;;;;;3.37;2.33;;;6.80;53.30;;;;;;4908120;29;20278;-65
2024/02/13 08:38:40;;;;;;;6.17;2.80;;;6.90;53.40;;;;;;4911875;29;20225;-65
2024/02/13 08:41:07;;;;;;;5.47;2.63;;;7.00;53.20;;;;;;4907245;29;20589;-65
2024/02/13 08:43:34;;;;;;;2.87;2.50;;;7.20;52.80;;;;;;4912808;29;20674;-65
2024/02/13 08:46:01;;;;;;;3.67;2.70;;;7.30;53.10;;;;;;4906299;29;20238;-66
2024/02/13 08:48:27;;;;;;;4.07;2.53;;;7.70;51.60;;;;;;4911533;29;20213;-64
2024/02/13 08:50:55;;;;;;;3.67;2.47;;;7.90;51.10;;;;;;4907661;29;20240;-64
2024/02/13 08:53:23;;;;;;;5.53;2.80;;;8.20;49.80;;;;;;4912286;29;20211;-65
2024/02/13 08:55:49;;;;;;;4.50;2.60;;;8.50;49.10;;;;;;4911371;29;20266;-64
2024/02/13 08:58:16;;;;;;;3.37;2.53;;;9.10;48.00;;;;;;4912824;29;20213;-64
2024/02/13 09:00:43;;;;;;;5.33;2.40;;;9.10;47.70;;;;;;4919435;29;20272;-64
2024/02/13 09:03:10;;;;;;;2.97;2.13;;;9.60;47.70;;;;;;4906597;29;20240;-65
2024/02/13 09:05:37;;;;;;;5.00;2.30;;;9.70;46.30;;;;;;4909844;29;20902;-64
2024/02/13 09:08:05;;;;;;;4.23;2.30;;;9.90;45.60;;;;;;4911799;29;20221;-64
2024/02/13 09:10:32;;;;;;;4.90;2.47;;;10.10;44.60;;;;;;4908617;29;20217;-65
2024/02/13 09:12:59;;;;;;;2.93;2.20;;;10.30;44.20;;;;;;4892930;29;20222;-65
2024/02/13 09:15:27;;;;;;;3.13;2.30;;;10.50;43.00;;;;;;4906463;29;20652;-65
2024/02/13 09:17:53;;;;;;;8.00;2.60;;;11.00;42.80;;;;;;4912384;29;20702;-66
2024/02/13 09:20:21;;;;;;;4.57;2.33;;;10.80;42.50;;;;;;4917219;29;20220;-66
2024/02/13 09:22:48;;;;;;;3.67;2.20;;;10.70;42.30;;;;;;4911317;29;20236;-66
2024/02/13 09:25:16;;;;;;;2.23;2.03;;;10.00;43.80;;;;;;4914691;29;20654;-66
2024/02/13 09:27:43;;;;;;;2.60;2.00;;;10.40;42.30;;;;;;4916422;29;20236;-66
2024/02/13 09:30:10;;;;;;;4.27;2.47;;;10.90;41.90;;;;;;4918712;29;20255;-66
2024/02/13 09:32:37;;;;;;;4.83;2.20;;;10.70;41.60;;;;;;4909968;29;20235;-66
2024/02/13 09:35:04;;;;;;;4.30;2.43;;;10.70;42.10;;;;;;4916828;29;20216;-66
2024/02/13 09:37:31;;;;;;;5.20;2.00;;;11.20;42.40;;;;;;4911583;29;20652;-66
2024/02/13 09:39:57;;;;;;;4.23;1.90;;;11.60;40.60;;;;;;4907969;29;20700;-67
2024/02/13 09:42:23;;;;;;;7.40;2.17;;;11.60;41.30;;;;;;4916619;29;20237;-66
2024/02/13 09:44:50;;;;;;;2.20;1.80;;;11.80;40.30;;;;;;4909752;29;20238;-66
2024/02/13 09:47:16;;;;;;;4.70;2.03;;;12.00;39.50;;;;;;4917989;29;20289;-66
2024/02/13 09:49:43;;;;;;;4.43;2.00;;;12.10;39.70;;;;;;4917896;29;20266;-66
2024/02/13 09:52:12;;;;;;;2.80;1.90;;;12.00;39.50;;;;;;4912666;29;20226;-66
2024/02/13 09:54:39;;;;;;;6.53;2.13;;;11.90;39.30;;;;;;4918337;29;20270;-66
2024/02/13 09:57:06;;;;;;;2.87;1.80;;;11.50;39.80;;;;;;4918044;29;20211;-66
2024/02/13 09:59:32;;;;;;;5.90;2.07;;;11.20;40.10;;;;;;4917997;29;20733;-66
2024/02/13 10:01:59;;;;;;;4.43;2.00;;;10.90;40.70;;;;;;4917756;29;20289;-66
2024/02/13 10:04:26;;;;;;;4.70;1.87;;;10.60;41.20;;;;;;4918171;29;20320;-66
2024/02/13 10:06:53;;;;;;;3.27;1.90;;;10.60;41.10;;;;;;4917697;29;20291;-66
2024/02/13 10:09:19;;;;;;;4.23;2.33;;;10.60;41.30;;;;;;4911886;29;20602;-66
2024/02/13 10:11:48;;;;;;;5.47;2.00;;;11.70;40.40;;;;;;4918629;29;20291;-66
2024/02/13 10:14:14;;;;;;;3.50;1.97;;;12.40;39.10;;;;;;4918133;29;20216;-66
2024/02/13 10:16:41;;;;;;;3.23;2.00;;;12.00;37.80;;;;;;4910502;29;20213;-66
2024/02/13 10:19:08;;;;;;;2.20;1.90;;;11.40;39.20;;;;;;4918010;29;20214;-66
2024/02/13 10:21:35;;;;;;;3.33;2.03;;;10.70;40.60;;;;;;4917907;29;20240;-65
2024/02/13 10:24:02;;;;;;;5.43;2.20;;;10.50;41.10;;;;;;4916987;29;20254;-66
2024/02/13 10:26:29;;;;;;;3.53;2.10;;;11.00;40.80;;;;;;4905351;29;20227;-66
2024/02/13 10:28:55;;;;;;;5.33;2.90;;;10.70;40.50;;;;;;4916714;29;20245;-66
2024/02/13 10:31:22;;;;;;;3.10;2.10;;;10.80;41.10;;;;;;4906456;29;20227;-66
2024/02/13 10:33:48;;;;;;;3.37;1.97;;;11.20;40.90;;;;;;4894961;29;20208;-66
2024/02/13 10:36:15;;;;;;;3.53;1.90;;;11.70;39.50;;;;;;4929298;29;20294;-66
2024/02/13 10:38:42;;;;;;;3.20;1.80;;;11.40;38.60;;;;;;4911996;29;20212;-66
2024/02/13 10:41:08;;;;;;;3.33;1.80;;;12.10;37.60;;;;;;4910651;29;20229;-66
2024/02/13 10:43:35;;;;;;;2.53;1.80;;;12.90;36.60;;;;;;4907586;29;20874;-66
2024/02/13 10:46:03;;;;;;;2.63;1.60;;;12.70;36.90;;;;;;4908483;29;20210;-66
2024/02/13 10:48:30;;;;;;;3.07;1.70;;;12.10;36.80;;;;;;4914229;29;20302;-66
2024/02/13 10:50:57;;;;;;;3.77;1.93;;;12.50;36.50;;;;;;4914138;29;20211;-66
2024/02/13 10:53:24;;;;;;;3.23;1.77;;;12.80;35.20;;;;;;4906526;29;20206;-69
2024/02/13 10:55:50;;;;;;;4.13;1.70;;;12.70;35.50;;;;;;4916096;29;20670;-67
2024/02/13 10:58:17;;;;;;;4.17;1.97;;;12.20;36.30;;;;;;4908660;29;20246;-65
2024/02/13 11:00:43;;;;;;;2.60;1.53;;;11.70;36.50;;;;;;4916786;29;20206;-65
2024/02/13 11:03:10;;;;;;;3.43;2.17;;;11.40;38.00;;;;;;4911468;29;20215;-66
2024/02/13 11:05:37;;;;;;;4.07;2.00;;;12.20;37.20;;;;;;4908464;29;20214;-65
2024/02/13 11:08:03;;;;;;;5.73;2.20;;;11.70;37.40;;;;;;4902813;29;20326;-65
2024/02/13 11:10:34;;;;;;;4.13;2.00;;;16.80;30.70;;;;;;4915075;29;20214;-65
2024/02/13 11:13:00;;;;;;;5.87;2.37;;;17.90;29.80;;;;;;4906087;29;20253;-65
2024/02/13 11:15:28;;;;;;;5.07;2.30;;;17.90;29.20;;;;;;4916537;29;20286;-65
2024/02/13 11:17:55;;;;;;;4.87;2.00;;;15.80;30.80;;;;;;4907795;29;20217;-66
2024/02/13 11:20:23;;;;;;;4.53;2.00;;;14.20;33.50;;;;;;4911960;29;20662;-66
2024/02/13 11:22:49;;;;;;;2.40;1.90;;;14.30;33.40;;;;;;4910184;29;20723;-66
2024/02/13 11:25:16;;;;;;;2.97;1.80;;;15.30;32.70;;;;;;4912671;29;20295;-66
2024/02/13 11:27:44;;;;;;;2.47;1.90;;;15.60;31.90;;;;;;4904950;29;20231;-66
2024/02/13 11:30:10;;;;;;;2.27;1.53;;;16.20;30.10;;;;;;4910157;29;20687;-66
2024/02/13 11:32:37;;;;;;;2.60;1.50;;;15.90;30.10;;;;;;4906530;29;20231;-66
2024/02/13 11:35:07;;;;;;;2.47;1.40;;;15.40;27.90;;;;;;4910272;29;20805;-65
2024/02/13 11:37:34;;;;;;;2.30;1.40;;;15.40;29.10;;;;;;4908392;29;20224;-66
2024/02/13 11:40:01;;;;;;;3.20;1.70;;;15.10;29.50;;;;;;4904727;29;20208;-65
2024/02/13 11:42:32;;;;;;;3.17;1.73;;;15.20;29.00;;;;;;4910616;29;20229;-65
2024/02/13 11:45:00;;;;;;;2.43;1.60;;;15.90;29.30;;;;;;4911065;29;20666;-65
2024/02/13 11:47:26;;;;;;;2.40;1.83;;;15.80;28.80;;;;;;4913356;29;20606;-66
2024/02/13 11:49:54;;;;;;;3.93;1.60;;;16.00;28.30;;;;;;4893424;29;20218;-65
2024/02/13 11:52:21;;;;;;;3.23;1.80;;;15.00;29.80;;;;;;4890833;29;20234;-64
2024/02/13 11:54:48;;;;;;;1.87;1.50;;;13.70;31.10;;;;;;4911288;29;20668;-63
2024/02/13 11:57:15;;;;;;;2.73;1.60;;;12.50;32.70;;;;;;4912278;29;20217;-63
2024/02/13 11:59:41;;;;;;;5.03;2.73;;;12.30;33.50;;;;;;4910733;29;20210;-64
2024/02/13 12:02:08;;;;;;;2.30;1.60;;;13.70;31.30;;;;;;4913108;29;20230;-64
2024/02/13 12:04:34;;;;;;;2.67;1.47;;;14.50;29.20;;;;;;4911030;29;20661;-64
2024/02/13 12:07:03;;;;;;;1.90;1.37;;;15.00;28.30;;;;;;4911558;29;20359;-64
2024/02/13 12:09:30;;;;;;;3.17;1.48;;;15.70;28.00;;;;;;4909395;29;20213;-64
2024/02/13 12:11:56;;;;;;;2.03;1.20;;;15.40;28.30;;;;;;4915842;29;20238;-64
2024/02/13 12:14:23;;;;;;;2.95;1.48;;;15.40;28.20;;;;;;4915487;29;20630;-64
2024/02/13 12:16:50;;;;;;;1.77;1.40;;;14.60;28.80;;;;;;4907179;29;20586;-64
2024/02/13 12:19:17;;;;;;;3.75;1.70;;;14.90;28.20;;;;;;4913679;29;20248;-64
2024/02/13 12:21:44;;;;;;;3.40;1.55;;;15.00;28.30;;;;;;4903638;29;20230;-64
2024/02/13 12:24:11;;;;;;;2.47;1.30;;;14.60;28.80;;;;;;4913540;29;20733;-64
2024/02/13 12:26:38;;;;;;;3.83;1.43;;;13.50;30.00;;;;;;4907256;29;20210;-65
2024/02/13 12:29:13;;;;;;;3.33;1.33;;;12.70;31.20;;;;;;4915129;29;20216;-65
2024/02/13 12:31:39;;;;;;;3.00;1.30;;;13.20;29.80;;;;;;4907914;29;20244;-65
2024/02/13 12:34:06;;;;;;;3.78;1.35;;;14.00;29.50;;;;;;4910679;29;20246;-64
2024/02/13 12:36:33;;;;;;;2.90;1.30;;;14.60;28.90;;;;;;4915495;29;20210;-65
2024/02/13 12:39:01;;;;;;;1.65;1.20;;;14.50;28.90;;;;;;4910352;29;20309;-65
2024/02/13 12:41:29;;;;;;;1.70;1.17;;;12.40;30.70;;;;;;4916612;29;20229;-64
2024/02/13 12:43:57;;;;;;;2.43;1.50;;;12.10;32.40;;;;;;4914621;29;20254;-65
2024/02/13 12:46:27;;;;;;;4.57;1.37;;;11.90;32.90;;;;;;4911772;29;20263;-64
2024/02/13 12:48:56;;;;;;;3.13;1.67;;;12.70;31.90;;;;;;4913973;29;20244;-64
2024/02/13 12:51:23;;;;;;;2.33;1.60;;;13.00;32.50;;;;;;4914248;29;20237;-65
2024/02/13 12:53:52;;;;;;;3.67;2.13;;;13.00;31.80;;;;;;4916760;29;20272;-65